Chisholm-hibbing, MN

6:23 PM CST on December 20, 2014 (GMT -0600)
Eveleth-Virginia Municipal | Change Station
CLOSE
Current Station
Airport
Location: Eveleth,
Elevation: 1378 ft
Nearby Weather Stations

Elev 1378 ft 47.43 °N, 92.50 °W | Updated 12 minutes ago

Overcast
Overcast
30 °F
Feels Like 20 °F
N
13
Wind Variable Wind from South

Today
High -- | Low -- °F
--% Chance of Precip.
Yesterday
High -- | Low -- °F
Precip. -- in
7:55 AM 4:22 PM
Waning Crescent, 1% visible
Pressure 30.05 in
Visibility 5.0 miles
Clouds Overcast 700 ft
Windchill 20 °F
Dew Point 28 °F
Humidity 93%
Rainfall 0.00 in
Snow Depth Not available.
UV 0 out of 12
Pollen .10 out of 12
Air Quality Not available.
Flu Activity Not available.
METAR KEVM 210011Z AUTO 19011KT 5SM BR OVC007 M01/M02 A3005 RMK AO2

More Conditions Fewer Conditions

Pressure 30.05 in
Visibility 5.0 miles
Clouds Overcast 700 ft
Windchill 20 °F
Dew Point 28 °F
Humidity 93%
Rainfall 0.00 in
Snow Depth Not available.
UV 0 out of 12
Pollen .10 out of 12
Air Quality Not available.
Flu Activity Not available.
METAR KEVM 210011Z AUTO 19011KT 5SM BR OVC007 M01/M02 A3005 RMK AO2

More Conditions Fewer Conditions

10-Day Weather Forecast

Almanac

Astronomy

Dec. 20, 2014 Rise Set
Actual Time
Civil Twilight
Nautical Twilight
Astronomical Twilight
Moon
Length of Visible Light
Length of Day
Tomorrow will be .
, % of the Moon is Illuminated

Today's Extremes

State Highs State Lows

Community

WunderPhotos

Upload Photos

1,779,325 photos uploaded!

WunderBlogs® & News

Nearby

Air Quality

  Air Quality AQ Index Pollutant
Not available.

Snow Depth

Station Depth Elevation

Earthquake Activity

City Distance Mag. Time & Date
Minimum magnitude displayed is 2.5.

Coastal Water Temperatures

Place Temperature

Nearby Weather Stations